Decoded Metar for UKDD (DNEPROPETROVSK in UKRAINE) (IATA:DNK) | Meteo·Mobile Aviation Weather
aviador You're here:

UKDD Decoded Metar

DNEPROPETROVSK in UKRAINE
Report Time2019-03-23 08:00:00
UTC Time2019-03-23 08:15:30
Flight Rules mvfr MVFR
Wind350° at 19 kt
W.Decomp.*RWY 26: 2.3 kt HW 18.9 kt RCW
W.Rank350° ranks 20
Current wind is above 350° avg. (8.8)
Visibility9999 m
Phenomena:N/A
Clouds:Broken 028 Hf
Expected CloudBase > 2,800 ft AGL from Temp-Dew spread
Ceiling2,800 ft
Temp04°C (ISA -10)
Dew Point-3°C (61% RH)
AAT-5.2°C
QNH1015 hPa
Density Alt-722 ft
Elevation489 ft
Report Wrong Elevation
Raw Report
UKDD 230800Z 35010MPS 320V020 9999 BKN028 04/M03 Q1015 R26/210370
TEMPO 36012G17MPS=

Extra information for UKDD:More info

Metar Taf Metar & Taf Last 4 Metars F.Rules Stats Wind Profile Meteogram Temp Stats Airport Information Weather charts Add Link Nearby VenuesMetar ALERT Operation Metar Decoded Social comments